createdAt,value
2023-11-04T00:01:23.820Z,57.83
2023-11-04T00:03:52.033Z,58.03
2023-11-04T00:06:19.860Z,58.04
2023-11-04T00:08:46.896Z,57.96
2023-11-04T00:11:13.739Z,58.07
2023-11-04T00:13:40.567Z,58.03
2023-11-04T00:16:10.738Z,58.01
2023-11-04T00:18:38.374Z,58.00
2023-11-04T00:21:09.019Z,58.00
2023-11-04T00:23:35.964Z,57.87
2023-11-04T00:26:03.784Z,57.94
2023-11-04T00:28:32.191Z,58.17
2023-11-04T00:30:59.215Z,57.75
2023-11-04T00:33:26.478Z,58.06
2023-11-04T00:35:53.481Z,57.87
2023-11-04T00:38:20.509Z,57.69
2023-11-04T00:40:47.371Z,58.22
2023-11-04T00:43:14.213Z,57.75
2023-11-04T00:45:41.115Z,58.00
2023-11-04T00:48:07.968Z,58.02
2023-11-04T00:50:34.763Z,57.96
2023-11-04T00:53:01.583Z,58.16
2023-11-04T00:55:28.367Z,57.87
2023-11-04T00:57:56.385Z,58.05
2023-11-04T01:00:27.251Z,58.16
2023-11-04T01:02:56.642Z,58.17
2023-11-04T01:05:24.474Z,58.12
2023-11-04T01:07:51.433Z,58.33
2023-11-04T01:10:18.240Z,58.18
2023-11-04T01:12:45.252Z,58.14
2023-11-04T01:15:12.371Z,58.33
2023-11-04T01:17:39.330Z,58.18
2023-11-04T01:20:09.091Z,58.31
2023-11-04T01:22:36.638Z,58.24
2023-11-04T01:25:03.946Z,58.17
2023-11-04T01:27:31.908Z,58.22
2023-11-04T01:29:58.825Z,58.45
2023-11-04T01:32:25.702Z,58.18
2023-11-04T01:34:52.608Z,58.23
2023-11-04T01:37:20.331Z,58.07
2023-11-04T01:39:47.824Z,58.15
2023-11-04T01:42:14.772Z,58.46
2023-11-04T01:44:41.613Z,58.61
2023-11-04T01:47:08.449Z,58.14
2023-11-04T01:49:35.631Z,58.44
2023-11-04T01:52:04.439Z,58.19
2023-11-04T01:54:32.580Z,58.54
2023-11-04T01:56:59.724Z,58.43
2023-11-04T01:59:27.478Z,58.53
2023-11-04T02:01:54.442Z,58.58
2023-11-04T02:04:21.468Z,58.50
2023-11-04T02:06:48.359Z,58.65
2023-11-04T02:09:16.523Z,58.23
2023-11-04T02:11:43.668Z,58.83
2023-11-04T02:14:11.854Z,58.57
2023-11-04T02:16:38.932Z,58.79
2023-11-04T02:19:06.420Z,58.60
2023-11-04T02:21:34.172Z,58.59
2023-11-04T02:24:01.005Z,58.31
2023-11-04T02:26:28.353Z,58.54
2023-11-04T02:28:55.217Z,58.82
2023-11-04T02:31:22.208Z,58.67
2023-11-04T02:33:49.174Z,58.69
2023-11-04T02:36:16.240Z,58.62
2023-11-04T02:38:43.381Z,58.83
2023-11-04T02:41:10.232Z,58.82
2023-11-04T02:43:37.179Z,59.00
2023-11-04T02:46:04.283Z,59.03
2023-11-04T02:48:31.203Z,58.87
2023-11-04T02:50:58.205Z,59.11
2023-11-04T02:53:25.016Z,58.96
2023-11-04T02:55:51.817Z,59.02
2023-11-04T02:58:18.625Z,58.79
2023-11-04T03:00:45.454Z,59.13
2023-11-04T03:03:12.345Z,59.07
2023-11-04T03:05:39.266Z,59.02
2023-11-04T03:08:06.263Z,59.13
2023-11-04T03:10:33.588Z,59.13
2023-11-04T03:13:00.527Z,59.03
2023-11-04T03:15:27.804Z,59.13
2023-11-04T03:17:54.678Z,59.00
2023-11-04T03:20:21.518Z,59.05
2023-11-04T03:22:48.387Z,59.23
2023-11-04T03:25:16.515Z,59.36
2023-11-04T03:27:43.696Z,59.19
2023-11-04T03:30:11.183Z,59.21
2023-11-04T03:32:38.109Z,59.04
2023-11-04T03:35:05.538Z,58.97
2023-11-04T03:37:32.500Z,58.89
2023-11-04T03:39:59.433Z,59.20
2023-11-04T03:42:26.474Z,58.87
2023-11-04T03:44:53.340Z,58.94
2023-11-04T03:47:20.273Z,58.96
2023-11-04T03:49:47.205Z,59.23
2023-11-04T03:52:14.068Z,58.94
2023-11-04T03:54:41.384Z,58.93
2023-11-04T03:57:08.216Z,59.16
2023-11-04T03:59:35.085Z,59.06
2023-11-04T04:02:01.902Z,59.21
2023-11-04T04:04:28.863Z,59.36
2023-11-04T04:06:55.779Z,59.04
2023-11-04T04:09:22.670Z,59.11
2023-11-04T04:11:49.556Z,59.03
2023-11-04T04:14:16.385Z,59.20
2023-11-04T04:16:43.218Z,59.19
2023-11-04T04:19:10.134Z,59.32
2023-11-04T04:21:39.410Z,59.00
2023-11-04T04:24:06.758Z,59.07
2023-11-04T04:26:33.696Z,59.36
2023-11-04T04:29:00.944Z,59.09
2023-11-04T04:31:29.036Z,59.33
2023-11-04T04:33:56.519Z,59.45
2023-11-04T04:36:23.623Z,59.38
2023-11-04T04:38:52.255Z,59.49
2023-11-04T04:41:19.498Z,59.15
2023-11-04T04:43:46.524Z,59.51
2023-11-04T04:46:13.404Z,59.20
2023-11-04T04:48:40.797Z,59.44
2023-11-04T04:51:08.494Z,59.66
2023-11-04T04:53:37.237Z,59.57
2023-11-04T04:56:04.798Z,59.33
2023-11-04T04:58:31.662Z,59.52
2023-11-04T05:00:58.531Z,59.43
2023-11-04T05:03:25.478Z,59.51
2023-11-04T05:05:52.368Z,59.49
2023-11-04T05:08:19.200Z,59.72
2023-11-04T05:10:46.081Z,59.77
2023-11-04T05:13:12.883Z,59.61
2023-11-04T05:15:39.716Z,59.55
2023-11-04T05:18:06.645Z,59.83
2023-11-04T05:20:33.536Z,59.80
2023-11-04T05:23:00.366Z,59.82
2023-11-04T05:25:28.537Z,59.97
2023-11-04T05:27:55.466Z,60.11
2023-11-04T05:30:23.051Z,59.90
2023-11-04T05:32:50.056Z,59.84
2023-11-04T05:35:18.098Z,60.12
2023-11-04T05:37:45.163Z,59.88
2023-11-04T05:40:12.437Z,59.91
2023-11-04T05:42:39.298Z,59.94
2023-11-04T05:45:06.943Z,60.25
2023-11-04T05:47:34.689Z,60.08
2023-11-04T05:50:05.185Z,60.31
2023-11-04T05:52:32.019Z,60.19
2023-11-04T05:54:59.667Z,60.11
2023-11-04T05:57:26.569Z,60.30
2023-11-04T05:59:53.409Z,60.38
2023-11-04T06:02:20.209Z,60.77
2023-11-04T06:04:47.147Z,60.30
2023-11-04T06:07:14.518Z,60.37
2023-11-04T06:09:41.480Z,60.62
2023-11-04T06:12:08.860Z,60.72
2023-11-04T06:14:35.804Z,60.51
2023-11-04T06:17:04.715Z,60.75
2023-11-04T06:19:31.582Z,60.61
2023-11-04T06:21:58.534Z,60.43
2023-11-04T06:24:25.490Z,60.90
2023-11-04T06:26:52.350Z,60.80
2023-11-04T06:29:19.197Z,60.82
2023-11-04T06:31:46.229Z,60.72
2023-11-04T06:34:13.198Z,60.69
2023-11-04T06:36:40.534Z,60.65
2023-11-04T06:39:07.917Z,60.82
2023-11-04T06:41:34.767Z,60.44
2023-11-04T06:44:01.727Z,60.74
2023-11-04T06:46:28.565Z,60.80
2023-11-04T06:48:55.533Z,60.71
2023-11-04T06:51:23.048Z,61.03
2023-11-04T06:53:51.731Z,60.90
2023-11-04T06:56:18.710Z,60.91
2023-11-04T06:58:45.551Z,60.95
2023-11-04T07:01:16.157Z,60.87
2023-11-04T07:03:43.654Z,61.01
2023-11-04T07:06:18.416Z,61.05
2023-11-04T07:08:46.875Z,61.12
2023-11-04T07:11:15.996Z,61.05
2023-11-04T07:13:43.286Z,61.05
2023-11-04T07:16:11.222Z,61.12
2023-11-04T07:18:38.884Z,61.18
2023-11-04T07:21:06.931Z,61.36
2023-11-04T07:23:34.079Z,60.96
2023-11-04T07:26:01.486Z,61.14
2023-11-04T07:28:37.023Z,61.15
2023-11-04T07:31:08.438Z,61.30
2023-11-04T07:33:35.810Z,61.24
2023-11-04T07:36:02.847Z,61.30
2023-11-04T07:38:29.693Z,60.93
2023-11-04T07:40:56.605Z,61.24
2023-11-04T07:43:23.510Z,61.06
2023-11-04T07:45:50.337Z,60.98
2023-11-04T07:48:18.042Z,61.09
2023-11-04T07:50:45.388Z,61.21
2023-11-04T07:53:12.229Z,61.31
2023-11-04T07:55:39.067Z,61.57
2023-11-04T07:58:06.028Z,61.29
2023-11-04T08:00:32.932Z,61.32
2023-11-04T08:03:02.795Z,61.40
2023-11-04T08:05:30.709Z,61.49
2023-11-04T08:07:57.735Z,61.59
2023-11-04T08:10:25.278Z,61.46
2023-11-04T08:12:52.189Z,61.43
2023-11-04T08:15:19.134Z,61.35
2023-11-04T08:17:46.055Z,61.06
2023-11-04T08:20:13.255Z,60.96
2023-11-04T08:22:40.425Z,60.88
2023-11-04T08:25:09.081Z,61.07
2023-11-04T08:27:36.275Z,60.90
2023-11-04T08:30:05.854Z,60.96
2023-11-04T08:32:32.819Z,60.96
2023-11-04T08:35:00.226Z,61.05
2023-11-04T08:37:27.973Z,60.98
2023-11-04T08:39:56.223Z,61.21
2023-11-04T08:42:23.949Z,61.20
2023-11-04T08:44:51.202Z,61.43
2023-11-04T08:47:18.373Z,61.48
2023-11-04T08:49:45.578Z,61.43
2023-11-04T08:52:13.068Z,61.65
2023-11-04T08:54:41.962Z,61.52
2023-11-04T08:57:09.298Z,61.64
2023-11-04T08:59:36.637Z,61.57
2023-11-04T09:02:03.962Z,61.36
2023-11-04T09:04:31.105Z,61.15
2023-11-04T09:06:58.231Z,60.76
2023-11-04T09:09:25.335Z,60.76
2023-11-04T09:11:56.594Z,60.52
2023-11-04T09:14:26.589Z,60.52
2023-11-04T09:16:53.435Z,60.37
2023-11-04T09:19:20.372Z,60.30
2023-11-04T09:21:47.399Z,60.30
2023-11-04T09:24:14.453Z,60.24
2023-11-04T09:26:41.349Z,60.26
2023-11-04T09:29:08.292Z,60.40
2023-11-04T09:31:36.782Z,60.40
2023-11-04T09:34:09.868Z,60.44
2023-11-04T09:36:37.089Z,60.38
2023-11-04T09:39:05.770Z,60.49
2023-11-04T09:41:35.576Z,60.39
2023-11-04T09:44:04.409Z,60.35
2023-11-04T09:46:32.121Z,60.41
2023-11-04T09:49:00.326Z,60.09
2023-11-04T09:51:29.026Z,60.25
2023-11-04T09:54:00.368Z,60.25
2023-11-04T09:56:28.090Z,60.15
2023-11-04T09:58:55.080Z,60.28
2023-11-04T10:01:22.195Z,60.05
2023-11-04T10:03:49.770Z,60.08
2023-11-04T10:06:17.578Z,60.01
2023-11-04T10:08:45.364Z,60.10
2023-11-04T10:11:12.283Z,60.01
2023-11-04T10:13:40.357Z,59.94
2023-11-04T10:16:08.416Z,60.03
2023-11-04T10:18:35.345Z,59.65
2023-11-04T10:21:02.243Z,59.94
2023-11-04T10:23:30.953Z,59.72
2023-11-04T10:28:56.501Z,60.15
2023-11-04T10:31:25.929Z,60.04
2023-11-04T10:33:59.165Z,60.15
2023-11-04T10:36:26.025Z,60.16
2023-11-04T10:39:04.888Z,60.08
2023-11-04T10:42:02.147Z,60.08
2023-11-04T10:44:34.424Z,59.95
2023-11-04T10:47:20.413Z,59.94
2023-11-04T10:50:08.955Z,59.94
2023-11-04T10:53:14.431Z,59.93
2023-11-04T10:56:05.082Z,59.93
2023-11-04T10:58:46.329Z,60.03
2023-11-04T11:01:13.456Z,59.78
2023-11-04T11:03:41.237Z,59.86
2023-11-04T11:06:09.316Z,59.98
2023-11-04T11:08:36.263Z,59.91
2023-11-04T11:11:18.385Z,59.68
2023-11-04T11:13:50.550Z,59.87
2023-11-04T11:16:17.916Z,59.77
2023-11-04T11:18:44.855Z,59.70
2023-11-04T11:21:12.652Z,59.67
2023-11-04T11:23:39.739Z,59.60
2023-11-04T11:26:12.946Z,59.46
2023-11-04T11:28:41.724Z,59.88
2023-11-04T11:31:13.417Z,59.30
2023-11-04T11:33:42.773Z,58.93
2023-11-04T11:36:12.600Z,59.07
2023-11-04T11:38:46.334Z,58.97
2023-11-04T11:41:17.502Z,59.05
2023-11-04T11:43:47.143Z,59.03
2023-11-04T11:46:14.395Z,59.00
2023-11-04T11:48:45.219Z,58.82
2023-11-04T11:51:14.292Z,58.76
2023-11-04T11:53:47.989Z,59.04
2023-11-04T11:56:15.475Z,59.05
2023-11-04T11:58:43.861Z,59.07
2023-11-04T12:01:12.195Z,59.06
2023-11-04T12:03:39.977Z,58.94
2023-11-04T12:06:08.522Z,58.95
2023-11-04T12:08:35.616Z,58.72
2023-11-04T12:11:02.430Z,58.84
2023-11-04T12:13:29.657Z,58.62
2023-11-04T12:15:57.041Z,58.31
2023-11-04T12:18:24.070Z,58.65
2023-11-04T12:20:51.055Z,58.45
2023-11-04T12:23:17.912Z,58.27
2023-11-04T12:25:45.144Z,58.30
2023-11-04T12:28:12.499Z,57.86
2023-11-04T12:30:39.560Z,57.72
2023-11-04T12:33:07.160Z,57.76
2023-11-04T12:35:37.559Z,57.83
2023-11-04T12:38:04.707Z,57.75
2023-11-04T12:40:32.400Z,57.75
2023-11-04T12:43:04.022Z,57.64
2023-11-04T12:45:32.126Z,57.39
2023-11-04T12:47:59.188Z,57.67
2023-11-04T12:50:26.160Z,57.59
2023-11-04T12:52:54.152Z,57.60
2023-11-04T12:55:21.432Z,57.65
2023-11-04T12:57:48.664Z,57.41
2023-11-04T13:00:15.959Z,57.41
2023-11-04T13:02:43.156Z,57.50
2023-11-04T13:05:10.456Z,57.33
2023-11-04T13:07:38.248Z,57.42
2023-11-04T13:10:08.923Z,57.22
2023-11-04T13:12:35.838Z,57.44
2023-11-04T13:15:02.643Z,57.42
2023-11-04T13:17:29.446Z,57.46
2023-11-04T13:19:56.274Z,57.57
2023-11-04T13:22:23.080Z,57.23
2023-11-04T13:24:50.212Z,57.36
2023-11-04T13:27:17.071Z,57.19
2023-11-04T13:29:43.920Z,57.24
2023-11-04T13:32:11.692Z,57.36
2023-11-04T13:34:38.695Z,57.37
2023-11-04T13:37:06.274Z,57.49
2023-11-04T13:39:33.163Z,57.57
2023-11-04T13:41:59.984Z,57.42
2023-11-04T13:44:26.768Z,57.42
2023-11-04T13:46:53.600Z,57.51
2023-11-04T13:49:20.481Z,57.43
2023-11-04T13:51:47.471Z,57.62
2023-11-04T13:54:14.379Z,57.57
2023-11-04T13:56:41.192Z,57.50
2023-11-04T13:59:09.556Z,57.41
2023-11-04T14:01:36.958Z,57.66
2023-11-04T14:04:04.591Z,57.35
2023-11-04T14:06:32.078Z,57.54
2023-11-04T14:09:00.879Z,57.43
2023-11-04T14:11:28.282Z,57.31
2023-11-04T14:13:55.158Z,57.36
2023-11-04T14:16:22.005Z,57.30
2023-11-04T14:18:49.071Z,57.17
2023-11-04T14:21:16.258Z,57.11
2023-11-04T14:23:43.088Z,57.16
2023-11-04T14:26:10.013Z,57.12
2023-11-04T14:28:36.884Z,57.12
2023-11-04T14:31:04.711Z,57.10
2023-11-04T14:33:31.909Z,57.07
2023-11-04T14:35:59.223Z,56.98
2023-11-04T14:38:26.053Z,56.82
2023-11-04T14:40:52.872Z,56.98
2023-11-04T14:43:19.776Z,56.85
2023-11-04T14:45:46.802Z,56.74
2023-11-04T14:48:13.728Z,56.75
2023-11-04T14:50:41.678Z,56.83
2023-11-04T14:53:08.706Z,56.85
2023-11-04T14:55:35.608Z,56.91
2023-11-04T14:58:03.110Z,56.64
2023-11-04T15:00:29.933Z,56.64
2023-11-04T15:02:56.777Z,56.53
2023-11-04T15:05:23.723Z,56.43
2023-11-04T15:07:50.626Z,56.50
2023-11-04T15:10:17.787Z,56.30
2023-11-04T15:12:47.893Z,56.51
2023-11-04T15:15:14.933Z,56.30
2023-11-04T15:17:41.797Z,56.50
2023-11-04T15:20:10.557Z,56.18
2023-11-04T15:22:37.478Z,56.33
2023-11-04T15:25:06.906Z,56.21
2023-11-04T15:27:33.933Z,56.11
2023-11-04T15:30:01.818Z,56.15
2023-11-04T15:32:28.781Z,56.11
2023-11-04T15:34:55.823Z,56.02
2023-11-04T15:37:23.830Z,56.08
2023-11-04T15:39:52.472Z,56.04
2023-11-04T15:42:19.409Z,56.03
2023-11-04T15:44:46.539Z,56.15
2023-11-04T15:47:13.503Z,56.13
2023-11-04T15:49:40.557Z,56.06
2023-11-04T15:52:08.075Z,56.18
2023-11-04T15:54:35.166Z,56.32
2023-11-04T15:57:01.977Z,56.35
2023-11-04T15:59:28.818Z,56.61
2023-11-04T16:01:55.654Z,56.65
2023-11-04T16:04:22.656Z,56.83
2023-11-04T16:06:49.716Z,56.93
2023-11-04T16:09:16.561Z,57.03
2023-11-04T16:11:43.378Z,57.45
2023-11-04T16:14:10.306Z,57.59
2023-11-04T16:16:37.142Z,57.73
2023-11-04T16:19:04.051Z,57.89
2023-11-04T16:21:30.967Z,58.08
2023-11-04T16:23:57.769Z,58.15
2023-11-04T16:26:24.612Z,58.39
2023-11-04T16:28:51.423Z,58.55
2023-11-04T16:31:25.047Z,58.76
2023-11-04T16:33:52.470Z,58.84
2023-11-04T16:36:19.854Z,58.88
2023-11-04T16:38:46.730Z,59.16
2023-11-04T16:41:13.579Z,59.34
2023-11-04T16:43:40.440Z,59.59
2023-11-04T16:46:10.437Z,59.62
2023-11-04T16:48:37.529Z,60.05
2023-11-04T16:51:07.432Z,60.02
2023-11-04T16:53:35.364Z,60.15
2023-11-04T16:56:02.269Z,60.34
2023-11-04T16:58:29.071Z,60.40
2023-11-04T17:00:56.374Z,60.40
2023-11-04T17:03:23.980Z,60.60
2023-11-04T17:05:50.920Z,60.66
2023-11-04T17:08:17.908Z,60.84
2023-11-04T17:10:44.777Z,60.75
2023-11-04T17:13:11.653Z,60.87
2023-11-04T17:15:42.470Z,60.99
2023-11-04T17:18:09.725Z,61.03
2023-11-04T17:20:36.743Z,61.26
2023-11-04T17:23:03.847Z,61.18
2023-11-04T17:25:30.742Z,61.32
2023-11-04T17:27:57.658Z,61.36
2023-11-04T17:30:24.619Z,61.46
2023-11-04T17:32:51.560Z,61.55
2023-11-04T17:35:19.384Z,61.63
2023-11-04T17:37:50.434Z,61.72
2023-11-04T17:40:18.631Z,61.65
2023-11-04T17:42:46.154Z,61.91
2023-11-04T17:45:16.636Z,62.01
2023-11-04T17:47:43.624Z,61.90
2023-11-04T17:50:10.884Z,61.97
2023-11-04T17:52:39.537Z,62.08
2023-11-04T17:55:07.527Z,62.05
2023-11-04T17:57:34.459Z,61.95
2023-11-04T18:00:01.375Z,61.91
2023-11-04T18:02:28.189Z,62.17
2023-11-04T18:04:56.488Z,61.97
2023-11-04T18:07:24.821Z,62.15
2023-11-04T18:09:51.731Z,62.05
2023-11-04T18:12:18.619Z,62.02
2023-11-04T18:14:45.413Z,62.12
2023-11-04T18:17:12.295Z,62.14
2023-11-04T18:19:40.874Z,62.12
2023-11-04T18:22:08.712Z,62.35
2023-11-04T18:24:36.137Z,62.51
2023-11-04T18:27:04.017Z,62.38
2023-11-04T18:29:30.862Z,62.45
2023-11-04T18:31:57.642Z,62.53
2023-11-04T18:34:24.507Z,62.57
2023-11-04T18:36:51.408Z,62.54
2023-11-04T18:39:18.371Z,62.50
2023-11-04T18:41:45.215Z,62.71
2023-11-04T18:44:13.003Z,62.63
2023-11-04T18:46:40.209Z,62.86
2023-11-04T18:49:07.242Z,62.58
2023-11-04T18:51:34.213Z,62.57
2023-11-04T18:54:01.148Z,62.75
2023-11-04T18:56:27.985Z,62.83
2023-11-04T18:58:54.953Z,62.81
2023-11-04T19:01:25.498Z,62.87
2023-11-04T19:03:52.495Z,62.92
2023-11-04T19:06:20.790Z,63.08
2023-11-04T19:08:47.855Z,63.19
2023-11-04T19:11:14.684Z,62.96
2023-11-04T19:13:41.503Z,63.07
2023-11-04T19:16:08.714Z,62.87
2023-11-04T19:18:36.491Z,62.88
2023-11-04T19:21:03.955Z,63.07
2023-11-04T19:23:30.783Z,62.85
2023-11-04T19:25:57.568Z,62.90
2023-11-04T19:28:26.453Z,62.78
2023-11-04T19:30:53.530Z,62.94
2023-11-04T19:33:20.501Z,63.07
2023-11-04T19:35:48.359Z,62.99
2023-11-04T19:38:15.857Z,62.92
2023-11-04T19:40:42.868Z,62.77
2023-11-04T19:43:09.752Z,62.96
2023-11-04T19:45:36.609Z,63.12
2023-11-04T19:48:03.954Z,62.96
2023-11-04T19:50:30.970Z,63.05
2023-11-04T19:52:57.785Z,63.24
2023-11-04T19:55:24.647Z,63.07
2023-11-04T19:57:54.908Z,63.22
2023-11-04T20:00:25.619Z,63.36
2023-11-04T20:02:52.813Z,63.17
2023-11-04T20:05:19.978Z,63.14
2023-11-04T20:07:46.947Z,63.31
2023-11-04T20:10:13.895Z,63.22
2023-11-04T20:12:40.776Z,63.17
2023-11-04T20:15:08.087Z,63.23
2023-11-04T20:17:34.983Z,63.00
2023-11-04T20:20:01.898Z,63.01
2023-11-04T20:22:28.724Z,62.98
2023-11-04T20:24:55.593Z,62.88
2023-11-04T20:27:23.778Z,63.04
2023-11-04T20:29:52.102Z,63.04
2023-11-04T20:32:18.963Z,62.88
2023-11-04T20:34:45.921Z,62.99
2023-11-04T20:37:13.006Z,62.88
2023-11-04T20:39:39.898Z,62.73
2023-11-04T20:42:07.811Z,62.73
2023-11-04T20:44:34.678Z,62.69
2023-11-04T20:47:01.749Z,62.86
2023-11-04T20:49:28.909Z,62.71
2023-11-04T20:51:55.775Z,62.64
2023-11-04T20:54:22.615Z,62.59
2023-11-04T20:56:50.378Z,62.31
2023-11-04T20:59:17.656Z,62.77
2023-11-04T21:01:45.054Z,62.70
2023-11-04T21:04:12.441Z,62.36
2023-11-04T21:06:39.708Z,62.42
2023-11-04T21:09:06.583Z,62.56
2023-11-04T21:11:33.492Z,62.29
2023-11-04T21:14:01.352Z,62.52
2023-11-04T21:16:28.238Z,62.53
2023-11-04T21:18:55.732Z,62.29
2023-11-04T21:21:26.479Z,62.50
2023-11-04T21:23:53.940Z,62.41
2023-11-04T21:26:20.985Z,62.71
2023-11-04T21:28:52.143Z,62.61
2023-11-04T21:31:19.383Z,62.63
2023-11-04T21:33:46.254Z,62.56
2023-11-04T21:36:14.113Z,62.56
2023-11-04T21:38:40.954Z,62.47
2023-11-04T21:41:08.574Z,62.77
2023-11-04T21:43:35.598Z,62.61
2023-11-04T21:46:02.472Z,62.79
2023-11-04T21:48:29.419Z,62.71
2023-11-04T21:50:56.358Z,62.62
2023-11-04T21:53:24.196Z,62.78
2023-11-04T21:55:51.081Z,62.60
2023-11-04T21:58:18.240Z,62.68
2023-11-04T22:00:45.818Z,62.70
2023-11-04T22:03:12.863Z,62.77
2023-11-04T22:05:39.740Z,62.75
2023-11-04T22:08:07.098Z,62.81
2023-11-04T22:10:38.678Z,62.87
2023-11-04T22:13:05.550Z,63.06
2023-11-04T22:15:32.554Z,63.01
2023-11-04T22:17:59.429Z,62.91
2023-11-04T22:20:26.347Z,62.94
2023-11-04T22:22:53.163Z,62.88
2023-11-04T22:25:20.060Z,63.10
2023-11-04T22:27:46.869Z,63.16
2023-11-04T22:30:13.735Z,63.08
2023-11-04T22:32:40.632Z,63.19
2023-11-04T22:35:07.785Z,63.33
2023-11-04T22:37:34.611Z,63.38
2023-11-04T22:40:01.542Z,63.47
2023-11-04T22:42:28.373Z,63.45
2023-11-04T22:44:55.189Z,63.55
2023-11-04T22:47:22.008Z,63.61
2023-11-04T22:49:48.808Z,63.66
2023-11-04T22:52:15.716Z,63.69
2023-11-04T22:54:42.607Z,63.69
2023-11-04T22:57:09.408Z,63.82
2023-11-04T22:59:36.210Z,63.83
2023-11-04T23:02:03.032Z,63.68
2023-11-04T23:04:30.092Z,63.78
2023-11-04T23:06:57.081Z,63.87
2023-11-04T23:09:24.742Z,64.00
2023-11-04T23:11:51.842Z,64.01
2023-11-04T23:14:18.766Z,64.02
2023-11-04T23:16:46.065Z,64.07
2023-11-04T23:19:12.992Z,64.09
2023-11-04T23:21:39.898Z,64.18
2023-11-04T23:24:07.353Z,64.13
2023-11-04T23:26:34.378Z,64.25
2023-11-04T23:29:01.314Z,64.40
2023-11-04T23:31:28.237Z,64.48
2023-11-04T23:33:55.126Z,64.55
2023-11-04T23:36:21.994Z,64.54
2023-11-04T23:38:48.845Z,64.52
2023-11-04T23:41:15.654Z,64.68
2023-11-04T23:43:42.566Z,64.79
2023-11-04T23:46:09.553Z,64.90
2023-11-04T23:48:36.433Z,64.83
2023-11-04T23:51:03.363Z,64.99
2023-11-04T23:53:30.886Z,64.66
2023-11-04T23:55:57.731Z,64.76
2023-11-04T23:58:24.561Z,64.80
